createdAt,value
2022-10-05T00:00:58.637Z,5.78
2022-10-05T00:03:28.877Z,6.95
2022-10-05T00:05:58.765Z,6.82
2022-10-05T00:08:30.263Z,5.90
2022-10-05T00:11:00.139Z,6.57
2022-10-05T00:13:32.070Z,6.78
2022-10-05T00:16:07.979Z,7.07
2022-10-05T00:18:37.876Z,7.65
2022-10-05T00:21:36.693Z,9.02
2022-10-05T00:24:06.651Z,9.55
2022-10-05T00:26:36.342Z,9.95
2022-10-05T00:29:09.438Z,9.57
2022-10-05T00:31:40.250Z,10.30
2022-10-05T00:34:09.899Z,8.35
2022-10-05T00:36:44.257Z,8.02
2022-10-05T00:39:13.983Z,8.85
2022-10-05T00:41:49.828Z,7.68
2022-10-05T00:44:37.639Z,6.90
2022-10-05T00:47:10.357Z,7.32
2022-10-05T00:49:52.557Z,8.20
2022-10-05T00:52:36.952Z,5.80
2022-10-05T00:55:26.616Z,5.10
2022-10-05T00:58:14.783Z,5.35
2022-10-05T01:00:48.480Z,4.97
2022-10-05T01:03:29.147Z,6.20
2022-10-05T01:05:58.834Z,7.45
2022-10-05T01:08:34.780Z,5.63
2022-10-05T01:11:04.385Z,6.53
2022-10-05T01:13:40.479Z,6.03
2022-10-05T01:16:14.368Z,5.43
2022-10-05T01:18:56.822Z,6.00
2022-10-05T01:21:27.624Z,6.13
2022-10-05T01:24:17.101Z,4.97
2022-10-05T01:27:10.799Z,4.68
2022-10-05T01:29:50.880Z,4.32
2022-10-05T01:32:27.786Z,4.07
2022-10-05T01:35:19.822Z,4.18
2022-10-05T01:38:01.689Z,4.72
2022-10-05T01:40:38.235Z,4.70
2022-10-05T01:43:29.421Z,2.10
2022-10-05T01:46:01.717Z,1.90
2022-10-05T01:48:36.212Z,2.75
2022-10-05T01:51:06.570Z,2.88
2022-10-05T01:53:42.481Z,2.15
2022-10-05T01:56:30.553Z,2.40
2022-10-05T01:59:00.222Z,1.73
2022-10-05T02:01:29.997Z,2.60
2022-10-05T02:04:56.409Z,2.95
2022-10-05T02:07:19.494Z,2.40
2022-10-05T02:09:57.127Z,2.03
2022-10-05T02:12:27.464Z,1.30
2022-10-05T02:14:58.230Z,1.45
2022-10-05T02:17:33.748Z,0.90
2022-10-05T02:20:04.912Z,0.93
2022-10-05T02:22:48.455Z,1.40
2022-10-05T02:25:19.566Z,1.05
2022-10-05T02:27:59.727Z,1.25
2022-10-05T02:30:29.579Z,1.25
2022-10-05T02:33:01.610Z,0.75
2022-10-05T02:35:31.255Z,0.40
2022-10-05T02:38:08.027Z,0.68
2022-10-05T02:40:37.768Z,0.60
2022-10-05T02:43:29.312Z,0.55
2022-10-05T02:45:59.406Z,1.00
2022-10-05T02:48:47.594Z,0.60
2022-10-05T02:51:24.113Z,0.60
2022-10-05T02:53:53.954Z,0.40
2022-10-05T02:56:23.726Z,0.50
2022-10-05T02:59:05.406Z,0.47
2022-10-05T03:01:35.597Z,0.38
2022-10-05T03:04:26.527Z,0.32
2022-10-05T03:07:00.097Z,0.52
2022-10-05T03:09:30.323Z,0.40
2022-10-05T03:12:00.398Z,0.65
2022-10-05T03:14:34.088Z,0.50
2022-10-05T03:17:03.773Z,0.68
2022-10-05T03:20:08.830Z,1.30
2022-10-05T03:22:48.307Z,0.68
2022-10-05T03:25:36.509Z,0.85
2022-10-05T03:28:24.801Z,1.27
2022-10-05T03:31:15.487Z,1.00
2022-10-05T03:34:05.731Z,0.50
2022-10-05T03:36:44.495Z,0.88
2022-10-05T03:44:12.791Z,0.55
2022-10-05T03:46:45.921Z,0.90
2022-10-05T03:49:34.802Z,1.00
2022-10-05T03:52:05.545Z,0.95
2022-10-05T03:54:35.403Z,0.65
2022-10-05T03:57:09.440Z,0.50
2022-10-05T04:00:05.781Z,0.70
2022-10-05T04:02:36.752Z,0.60
2022-10-05T04:05:16.927Z,0.50
2022-10-05T04:07:52.733Z,0.63
2022-10-05T04:10:24.905Z,0.45
2022-10-05T04:12:57.360Z,0.40
2022-10-05T04:15:32.638Z,0.60
2022-10-05T04:18:08.895Z,0.45
2022-10-05T04:20:44.894Z,0.52
2022-10-05T04:23:20.945Z,0.40
2022-10-05T04:25:57.060Z,0.60
2022-10-05T04:28:32.395Z,0.82
2022-10-05T04:31:02.593Z,0.93
2022-10-05T04:33:32.724Z,0.80
2022-10-05T04:36:14.874Z,0.95
2022-10-05T04:38:54.081Z,1.02
2022-10-05T04:41:24.067Z,0.95
2022-10-05T04:43:54.002Z,0.60
2022-10-05T04:46:42.363Z,0.60
2022-10-05T04:49:15.711Z,0.40
2022-10-05T04:51:51.172Z,0.55
2022-10-05T04:54:21.510Z,0.47
2022-10-05T04:57:05.156Z,0.50
2022-10-05T04:59:51.658Z,0.52
2022-10-05T05:02:39.752Z,0.40
2022-10-05T05:05:27.469Z,0.50
2022-10-05T05:07:57.158Z,2.15
2022-10-05T05:10:26.791Z,0.30
2022-10-05T05:13:05.668Z,0.40
2022-10-05T05:15:41.013Z,0.50
2022-10-05T05:18:27.338Z,0.43
2022-10-05T05:21:00.157Z,0.45
2022-10-05T05:23:41.657Z,1.10
2022-10-05T05:26:17.522Z,1.08
2022-10-05T05:28:57.309Z,0.82
2022-10-05T05:31:46.151Z,0.30
2022-10-05T05:36:45.768Z,0.40
2022-10-05T05:39:27.646Z,0.60
2022-10-05T05:42:00.834Z,0.50
2022-10-05T05:44:34.250Z,0.68
2022-10-05T05:47:13.952Z,0.38
2022-10-05T05:49:47.109Z,0.57
2022-10-05T05:52:17.267Z,0.57
2022-10-05T05:54:48.537Z,0.60
2022-10-05T05:57:31.621Z,0.85
2022-10-05T06:00:26.437Z,0.40
2022-10-05T06:03:02.561Z,0.40
2022-10-05T06:05:35.684Z,0.50
2022-10-05T06:08:09.123Z,0.52
2022-10-05T06:10:46.867Z,0.50
2022-10-05T06:13:21.759Z,0.82
2022-10-05T06:16:14.757Z,0.50
2022-10-05T06:18:46.166Z,0.73
2022-10-05T06:21:22.254Z,1.10
2022-10-05T06:23:56.917Z,1.80
2022-10-05T06:26:26.769Z,1.95
2022-10-05T06:29:01.018Z,1.95
2022-10-05T06:31:34.628Z,1.80
2022-10-05T06:34:36.675Z,2.85
2022-10-05T06:37:07.903Z,1.35
2022-10-05T06:40:01.191Z,1.83
2022-10-05T06:42:49.282Z,3.38
2022-10-05T06:45:22.221Z,4.15
2022-10-05T06:48:05.336Z,2.50
2022-10-05T06:50:38.008Z,1.85
2022-10-05T06:53:08.031Z,1.48
2022-10-05T06:55:43.833Z,1.05
2022-10-05T06:58:28.113Z,1.30
2022-10-05T07:01:06.232Z,1.00
2022-10-05T07:03:36.148Z,1.17
2022-10-05T07:06:22.969Z,1.13
2022-10-05T07:08:58.687Z,0.90
2022-10-05T07:11:34.472Z,0.80
2022-10-05T07:14:16.219Z,0.70
2022-10-05T07:17:04.277Z,0.70
2022-10-05T07:19:36.685Z,0.70
2022-10-05T07:22:22.225Z,0.30
2022-10-05T07:24:59.760Z,0.85
2022-10-05T07:27:31.194Z,1.42
2022-10-05T07:30:08.193Z,0.77
2022-10-05T07:32:41.414Z,0.60
2022-10-05T07:35:32.373Z,0.93
2022-10-05T07:38:03.363Z,0.65
2022-10-05T07:40:39.616Z,0.30
2022-10-05T07:43:18.769Z,0.40
2022-10-05T07:45:54.720Z,1.33
2022-10-05T07:48:45.036Z,3.53
2022-10-05T07:51:15.025Z,6.00
2022-10-05T07:53:50.573Z,4.95
2022-10-05T07:56:24.566Z,2.80
2022-10-05T07:58:54.857Z,3.47
2022-10-05T08:01:26.918Z,1.73
2022-10-05T08:03:58.615Z,2.10
2022-10-05T08:06:34.678Z,2.47
2022-10-05T08:09:10.339Z,0.75
2022-10-05T08:11:42.320Z,0.70
2022-10-05T08:14:41.498Z,1.40
2022-10-05T08:17:14.315Z,0.60
2022-10-05T08:19:49.623Z,1.05
2022-10-05T08:22:37.489Z,1.45
2022-10-05T08:25:25.915Z,1.45
2022-10-05T08:28:11.407Z,1.23
2022-10-05T08:30:50.213Z,1.17
2022-10-05T08:33:20.625Z,1.40
2022-10-05T08:35:57.145Z,1.88
2022-10-05T08:38:28.172Z,1.58
2022-10-05T08:41:04.352Z,2.22
2022-10-05T08:43:39.970Z,2.20
2022-10-05T08:46:15.694Z,3.80
2022-10-05T08:48:57.981Z,2.13
2022-10-05T08:51:36.465Z,3.03
2022-10-05T08:54:12.196Z,4.10
2022-10-05T08:56:45.433Z,4.15
2022-10-05T08:59:20.436Z,4.57
2022-10-05T09:02:13.224Z,5.28
2022-10-05T09:05:01.445Z,5.15
2022-10-05T09:07:31.048Z,3.85
2022-10-05T09:10:26.780Z,3.17
2022-10-05T09:12:56.526Z,3.53
2022-10-05T09:15:37.448Z,3.70
2022-10-05T09:18:13.310Z,3.15
2022-10-05T09:20:53.300Z,2.60
2022-10-05T09:23:41.166Z,2.50
2022-10-05T09:26:25.881Z,3.90
2022-10-05T09:29:01.706Z,4.25
2022-10-05T09:31:34.806Z,3.58
2022-10-05T09:34:23.106Z,3.45
2022-10-05T09:36:55.517Z,6.10
2022-10-05T09:39:36.008Z,5.40
2022-10-05T09:42:21.219Z,6.18
2022-10-05T09:45:05.594Z,7.38
2022-10-05T09:47:38.176Z,5.80
2022-10-05T09:50:10.839Z,5.15
2022-10-05T09:52:43.807Z,5.25
2022-10-05T09:55:13.621Z,5.25
2022-10-05T09:57:53.355Z,5.22
2022-10-05T10:00:23.187Z,5.53
2022-10-05T10:03:06.899Z,5.40
2022-10-05T10:05:36.673Z,5.68
2022-10-05T10:08:09.201Z,5.55
2022-10-05T10:10:49.562Z,6.03
2022-10-05T10:13:55.095Z,6.57
2022-10-05T10:16:31.359Z,6.68
2022-10-05T10:19:32.666Z,6.43
2022-10-05T10:22:17.336Z,6.78
2022-10-05T10:25:05.857Z,7.18
2022-10-05T10:27:54.414Z,6.57
2022-10-05T10:30:44.866Z,6.90
2022-10-05T10:33:29.045Z,7.72
2022-10-05T10:36:44.402Z,5.30
2022-10-05T10:39:39.788Z,5.45
2022-10-05T10:45:49.520Z,6.40
2022-10-05T10:48:28.740Z,5.82
2022-10-05T10:53:53.392Z,7.53
2022-10-05T10:56:43.470Z,7.32
2022-10-05T11:03:04.275Z,6.45
2022-10-05T11:05:48.854Z,4.97
2022-10-05T11:08:45.189Z,7.03
2022-10-05T11:12:22.513Z,6.18
2022-10-05T11:15:12.448Z,10.25
2022-10-05T11:17:52.622Z,20.15
2022-10-05T11:20:49.249Z,23.27
2022-10-05T11:26:40.476Z,8.88
2022-10-05T11:32:25.852Z,8.60
2022-10-05T11:37:45.097Z,16.35
2022-10-05T11:40:31.402Z,12.52
2022-10-05T11:43:09.742Z,13.07
2022-10-05T11:45:43.839Z,13.87
2022-10-05T11:48:15.498Z,13.00
2022-10-05T11:50:53.972Z,10.77
2022-10-05T11:54:02.266Z,9.07
2022-10-05T11:56:42.596Z,6.45
2022-10-05T11:59:16.236Z,8.13
2022-10-05T12:02:01.613Z,10.30
2022-10-05T12:04:41.617Z,8.55
2022-10-05T12:07:23.858Z,9.13
2022-10-05T12:10:16.487Z,9.63
2022-10-05T12:13:04.777Z,10.43
2022-10-05T12:15:46.977Z,7.20
2022-10-05T12:18:21.773Z,8.25
2022-10-05T12:21:10.091Z,5.88
2022-10-05T12:23:44.776Z,6.30
2022-10-05T12:26:23.703Z,7.18
2022-10-05T12:29:05.723Z,4.65
2022-10-05T12:31:44.537Z,4.47
2022-10-05T12:34:36.861Z,4.70
2022-10-05T12:37:32.541Z,3.47
2022-10-05T12:40:21.007Z,3.42
2022-10-05T12:43:03.725Z,3.53
2022-10-05T12:45:57.191Z,2.80
2022-10-05T12:48:36.677Z,2.67
2022-10-05T12:51:16.307Z,2.92
2022-10-05T12:56:38.812Z,2.97
2022-10-05T12:59:24.642Z,2.70
2022-10-05T13:02:09.449Z,2.17
2022-10-05T13:04:59.142Z,2.35
2022-10-05T13:07:54.115Z,2.20
2022-10-05T13:10:46.457Z,2.72
2022-10-05T13:13:30.853Z,3.70
2022-10-05T13:16:06.841Z,3.53
2022-10-05T13:18:44.090Z,4.20
2022-10-05T13:21:16.941Z,4.18
2022-10-05T13:23:55.106Z,3.92
2022-10-05T13:26:36.575Z,4.13
2022-10-05T13:34:05.342Z,4.82
2022-10-05T13:36:38.406Z,4.97
2022-10-05T13:39:18.145Z,6.35
2022-10-05T13:41:53.263Z,5.97
2022-10-05T13:44:23.218Z,6.28
2022-10-05T13:46:56.495Z,7.65
2022-10-05T13:49:31.015Z,6.82
2022-10-05T13:52:17.327Z,7.45
2022-10-05T13:55:05.362Z,6.70
2022-10-05T13:57:35.189Z,6.00
2022-10-05T14:00:06.937Z,6.60
2022-10-05T14:02:41.411Z,7.20
2022-10-05T14:05:18.742Z,8.10
2022-10-05T14:07:51.476Z,7.65
2022-10-05T14:10:38.987Z,8.15
2022-10-05T14:13:30.112Z,9.75
2022-10-05T14:16:01.470Z,6.45
2022-10-05T14:18:32.858Z,5.95
2022-10-05T14:21:04.588Z,5.35
2022-10-05T14:23:34.484Z,3.97
2022-10-05T14:26:04.707Z,3.58
2022-10-05T14:28:35.385Z,2.88
2022-10-05T14:31:06.756Z,2.83
2022-10-05T14:33:36.793Z,2.47
2022-10-05T14:36:09.082Z,2.53
2022-10-05T14:38:53.382Z,2.42
2022-10-05T14:41:29.926Z,2.55
2022-10-05T14:44:08.877Z,2.30
2022-10-05T14:46:40.110Z,2.60
2022-10-05T14:49:27.139Z,2.40
2022-10-05T14:51:57.208Z,2.45
2022-10-05T14:54:32.946Z,1.92
2022-10-05T14:57:08.783Z,2.33
2022-10-05T14:59:45.113Z,2.10
2022-10-05T15:02:28.115Z,3.05
2022-10-05T15:04:57.889Z,5.60
2022-10-05T15:07:27.603Z,5.47
2022-10-05T15:10:15.911Z,5.32
2022-10-05T15:12:48.079Z,4.55
2022-10-05T15:15:20.846Z,4.97
2022-10-05T15:17:53.939Z,4.68
2022-10-05T15:20:25.897Z,5.80
2022-10-05T15:22:55.742Z,5.32
2022-10-05T15:25:48.721Z,5.22
2022-10-05T15:28:38.432Z,4.00
2022-10-05T15:31:08.777Z,4.25
2022-10-05T15:33:47.699Z,4.13
2022-10-05T15:36:21.714Z,4.78
2022-10-05T15:38:51.571Z,4.55
2022-10-05T15:41:23.023Z,4.10
2022-10-05T15:44:06.462Z,4.45
2022-10-05T15:46:43.246Z,3.10
2022-10-05T15:49:17.780Z,3.80
2022-10-05T15:51:51.747Z,2.70
2022-10-05T15:54:45.782Z,4.00
2022-10-05T15:57:23.729Z,3.90
2022-10-05T15:59:56.526Z,4.55
2022-10-05T16:02:31.416Z,5.28
2022-10-05T16:05:13.706Z,5.18
2022-10-05T16:08:06.375Z,4.57
2022-10-05T16:10:36.585Z,3.90
2022-10-05T16:13:16.500Z,5.88
2022-10-05T16:15:50.037Z,8.60
2022-10-05T16:18:20.234Z,9.13
2022-10-05T16:21:06.968Z,9.30
2022-10-05T16:23:36.903Z,6.43
2022-10-05T16:26:19.855Z,6.97
2022-10-05T16:29:04.863Z,7.80
2022-10-05T16:31:38.787Z,8.07
2022-10-05T16:34:08.782Z,6.50
2022-10-05T16:36:41.883Z,6.97
2022-10-05T16:39:18.960Z,6.85
2022-10-05T16:42:04.046Z,8.40
2022-10-05T16:44:42.954Z,9.90
2022-10-05T16:47:32.554Z,6.68
2022-10-05T16:50:18.791Z,5.72
2022-10-05T16:52:50.358Z,4.05
2022-10-05T16:55:29.847Z,3.83
2022-10-05T16:57:59.632Z,3.45
2022-10-05T17:00:47.568Z,3.53
2022-10-05T17:03:20.257Z,3.78
2022-10-05T17:06:09.949Z,2.20
2022-10-05T17:08:51.311Z,2.20
2022-10-05T17:11:36.830Z,2.90
2022-10-05T17:14:06.680Z,2.30
2022-10-05T17:16:45.604Z,1.98
2022-10-05T17:19:19.404Z,2.05
2022-10-05T17:21:52.934Z,2.30
2022-10-05T17:24:26.042Z,3.22
2022-10-05T17:27:00.932Z,4.07
2022-10-05T17:29:52.956Z,3.88
2022-10-05T17:32:22.971Z,3.17
2022-10-05T17:35:14.743Z,2.92
2022-10-05T17:38:06.953Z,2.05
2022-10-05T17:40:37.918Z,2.05
2022-10-05T17:43:19.729Z,1.60
2022-10-05T17:45:49.372Z,1.52
2022-10-05T17:48:38.055Z,1.88
2022-10-05T17:51:38.032Z,2.13
2022-10-05T17:54:45.757Z,2.50
2022-10-05T17:57:15.379Z,2.28
2022-10-05T17:59:51.969Z,1.98
2022-10-05T18:02:38.848Z,2.42
2022-10-05T18:05:16.014Z,2.42
2022-10-05T18:07:50.086Z,2.67
2022-10-05T18:10:30.466Z,2.40
2022-10-05T18:13:02.943Z,4.18
2022-10-05T18:15:32.732Z,4.53
2022-10-05T18:18:22.943Z,5.05
2022-10-05T18:21:20.544Z,4.47
2022-10-05T18:24:02.538Z,3.83
2022-10-05T18:26:47.871Z,3.97
2022-10-05T18:29:53.954Z,3.67
2022-10-05T18:32:29.940Z,3.60
2022-10-05T18:35:02.298Z,3.90
2022-10-05T18:37:50.521Z,3.80
2022-10-05T18:40:22.737Z,3.70
2022-10-05T18:42:58.571Z,4.55
2022-10-05T18:45:46.846Z,5.82
2022-10-05T18:48:35.772Z,3.45
2022-10-05T18:51:25.112Z,3.03
2022-10-05T18:54:15.129Z,2.90
2022-10-05T18:56:46.696Z,3.05
2022-10-05T18:59:36.401Z,1.75
2022-10-05T19:02:25.996Z,1.95
2022-10-05T19:05:00.774Z,2.35
2022-10-05T19:07:42.815Z,3.28
2022-10-05T19:10:12.499Z,2.15
2022-10-05T19:12:51.265Z,2.03
2022-10-05T19:15:24.327Z,2.70
2022-10-05T19:18:12.733Z,2.10
2022-10-05T19:21:11.674Z,2.50
2022-10-05T19:23:50.519Z,2.53
2022-10-05T19:26:30.929Z,2.95
2022-10-05T19:29:17.297Z,5.13
2022-10-05T19:31:51.190Z,7.50
2022-10-05T19:34:36.487Z,5.13
2022-10-05T19:37:15.840Z,5.47
2022-10-05T19:40:08.863Z,5.72
2022-10-05T19:42:48.939Z,4.80
2022-10-05T19:47:49.651Z,3.85
2022-10-05T19:50:23.663Z,3.10
2022-10-05T19:52:53.885Z,3.28
2022-10-05T19:55:27.674Z,3.15
2022-10-05T19:57:58.355Z,3.70
2022-10-05T20:00:29.743Z,3.33
2022-10-05T20:03:11.834Z,3.20
2022-10-05T20:05:42.128Z,3.05
2022-10-05T20:08:18.621Z,3.83
2022-10-05T20:10:48.942Z,2.97
2022-10-05T20:13:22.306Z,3.08
2022-10-05T20:16:29.241Z,2.80
2022-10-05T20:19:17.204Z,3.25
2022-10-05T20:21:53.938Z,2.97
2022-10-05T20:24:27.209Z,3.78
2022-10-05T20:27:03.951Z,4.25
2022-10-05T20:29:40.572Z,4.20
2022-10-05T20:32:11.393Z,4.35
2022-10-05T20:34:44.510Z,3.65
2022-10-05T20:37:17.787Z,2.72
2022-10-05T20:39:49.518Z,4.55
2022-10-05T20:42:19.578Z,3.92
2022-10-05T20:44:55.773Z,4.22
2022-10-05T20:47:26.845Z,4.20
2022-10-05T20:49:56.688Z,4.32
2022-10-05T20:52:26.324Z,5.15
2022-10-05T20:54:59.802Z,4.40
2022-10-05T20:57:29.502Z,4.90
2022-10-05T20:59:59.253Z,5.32
2022-10-05T21:02:30.052Z,4.35
2022-10-05T21:04:59.800Z,4.03
2022-10-05T21:07:29.673Z,4.72
2022-10-05T21:09:59.658Z,5.57
2022-10-05T21:12:29.607Z,4.72
2022-10-05T21:15:01.192Z,4.47
2022-10-05T21:17:30.959Z,4.38
2022-10-05T21:20:01.331Z,4.88
2022-10-05T21:22:30.991Z,3.65
2022-10-05T21:25:00.841Z,3.33
2022-10-05T21:27:31.259Z,4.43
2022-10-05T21:30:00.830Z,4.18
2022-10-05T21:32:30.927Z,5.03
2022-10-05T21:35:00.622Z,4.70
2022-10-05T21:37:30.489Z,4.68
2022-10-05T21:40:00.174Z,5.22
2022-10-05T21:42:29.836Z,4.90
2022-10-05T21:44:59.457Z,5.15
2022-10-05T21:47:29.398Z,5.85
2022-10-05T21:49:59.056Z,4.80
2022-10-05T21:52:28.664Z,4.70
2022-10-05T21:54:58.368Z,4.53
2022-10-05T21:57:28.225Z,4.50
2022-10-05T21:59:57.794Z,4.90
2022-10-05T22:02:27.616Z,4.00
2022-10-05T22:04:59.324Z,4.45
2022-10-05T22:07:30.314Z,3.30
2022-10-05T22:10:00.152Z,3.10
2022-10-05T22:12:30.540Z,3.58
2022-10-05T22:15:00.487Z,2.65
2022-10-05T22:17:32.578Z,4.43
2022-10-05T22:20:02.589Z,3.50
2022-10-05T22:22:32.501Z,3.28
2022-10-05T22:25:02.137Z,2.40
2022-10-05T22:27:32.085Z,2.88
2022-10-05T22:30:02.766Z,2.92
2022-10-05T22:32:32.891Z,2.65
2022-10-05T22:35:02.581Z,3.15
2022-10-05T22:37:34.891Z,3.10
2022-10-05T22:40:04.854Z,3.22
2022-10-05T22:42:35.098Z,3.38
2022-10-05T22:45:04.775Z,3.38
2022-10-05T22:47:34.368Z,3.60
2022-10-05T22:50:05.111Z,4.25
2022-10-05T22:52:35.146Z,4.88
2022-10-05T22:55:04.732Z,4.95
2022-10-05T22:57:41.235Z,3.90
2022-10-05T23:00:11.570Z,4.47
2022-10-05T23:02:42.450Z,4.93
2022-10-05T23:05:14.720Z,5.45
2022-10-05T23:07:45.349Z,4.80
2022-10-05T23:10:16.137Z,5.38
2022-10-05T23:12:45.953Z,4.20
2022-10-05T23:15:16.042Z,3.83
2022-10-05T23:17:48.358Z,4.85
2022-10-05T23:20:22.391Z,5.20
2022-10-05T23:22:55.863Z,4.93
2022-10-05T23:25:28.952Z,5.82
2022-10-05T23:27:58.925Z,5.30
2022-10-05T23:30:29.038Z,5.32
2022-10-05T23:32:59.563Z,5.05
2022-10-05T23:35:29.607Z,6.75
2022-10-05T23:37:59.883Z,6.88
2022-10-05T23:40:30.130Z,6.72
2022-10-05T23:43:00.725Z,7.05
2022-10-05T23:45:30.488Z,6.20
2022-10-05T23:48:00.121Z,7.05
2022-10-05T23:50:29.798Z,6.72
2022-10-05T23:52:59.415Z,6.68
2022-10-05T23:55:29.231Z,4.80
2022-10-05T23:57:59.016Z,6.03
